Burwash Landing, Canada
Current Conditions -  °F | °C
As of 6:40 AM on Saturday 20 Dec 2014 (Local Time) from CYDB Reporting Station
Overcast Overcast  
Wind Chill: -11°   Ceiling: 1500
Heat Index: -11°   Visibility: 9mi
Dew Point: -15°   Wind: 2mph
Humidity: 84%   Direction: NA
Pressure: 29.15"   Gusts: NA
Location:  61.35°N, 138.99°W
Report Text: CYDB 201440Z AUTO VRB02KT 9SM SCT003 OVC015 M24/M26 A2915 RMK SLP958
Loading
Personal Weather Stations






























Interactive Weather Map New forecast layout! Learn more

10-Day Weather Forecast

Advertisements
Track Severe Weather on mobile